VIR165 EGLL-MKJS
Flight info
| Callsign | VIR165 |
|---|---|
| Flight time | N/A |
| Altitude | 34000 |
| Route | CPT DCT DIDZA L9 OKSAW DCT BIBPE DCT BUCGO DCT FELCA DCT OFSOX DCT BANBA DCT LIMRI/M082F340 DCT 53N020W 52N030W 49N040W 44N050W/M082F360 36N060W/M082F380 DCT BALOO DCT BALTN DCT RUDLI DCT CANEE/N0475F380 M331 GHANN UM331 ULDAR DCT TILUP LENAR7 |
| Aircraft | A339/H-SADE1E2E3GHIJ3J5M1P2RWXY/LB2D1 |
Departure
| Time | 2026-05-07 12:07 |
|---|---|
| Airport | London Heathrow Airport (EGLL) |
Arrival
| Time | N/A |
|---|---|
| Airport | Sangster International Airport (MKJS) |
| Time | Latitude | Longitude | Altitude | Speed | Heading |
|---|---|---|---|---|---|
| 2026-05-07 11:16 | 51.47038 | -0.46357 | 100 ft | 0 kts | 236° |
| 2026-05-07 11:42 | 51.47041 | -0.46350 | 100 ft | 2 kts | 236° |
| 2026-05-07 11:42 | 51.47049 | -0.46330 | 100 ft | 2 kts | 243° |
| 2026-05-07 11:42 | 51.47055 | -0.46308 | 100 ft | 2 kts | 258° |
| 2026-05-07 11:42 | 51.47057 | -0.46284 | 100 ft | 2 kts | 271° |
| 2026-05-07 11:43 | 51.47055 | -0.46260 | 100 ft | 2 kts | 284° |
| 2026-05-07 11:43 | 51.47051 | -0.46236 | 100 ft | 2 kts | 297° |
| 2026-05-07 11:43 | 51.47042 | -0.46215 | 100 ft | 2 kts | 310° |
| 2026-05-07 11:43 | 51.47032 | -0.46199 | 100 ft | 2 kts | 323° |
| 2026-05-07 11:44 | 51.47027 | -0.46192 | 100 ft | 1 kts | 327° |
| 2026-05-07 11:44 | 51.47026 | -0.46192 | 100 ft | 0 kts | 327° |
| 2026-05-07 11:53 | 51.47032 | -0.46198 | 100 ft | 2 kts | 327° |
| 2026-05-07 11:54 | 51.47051 | -0.46218 | 100 ft | 4 kts | 327° |
| 2026-05-07 11:54 | 51.47080 | -0.46250 | 100 ft | 6 kts | 326° |
| 2026-05-07 11:54 | 51.47121 | -0.46294 | 100 ft | 7 kts | 325° |
| 2026-05-07 11:54 | 51.47170 | -0.46349 | 100 ft | 9 kts | 325° |
| 2026-05-07 11:55 | 51.47219 | -0.46405 | 100 ft | 8 kts | 322° |
| 2026-05-07 11:55 | 51.47240 | -0.46482 | 100 ft | 7 kts | 272° |
| 2026-05-07 11:55 | 51.47240 | -0.46574 | 100 ft | 8 kts | 269° |
| 2026-05-07 11:55 | 51.47239 | -0.46653 | 100 ft | 6 kts | 270° |
| 2026-05-07 11:56 | 51.47238 | -0.46730 | 100 ft | 6 kts | 269° |
| 2026-05-07 11:56 | 51.47238 | -0.46802 | 100 ft | 5 kts | 269° |
| 2026-05-07 11:56 | 51.47219 | -0.46855 | 100 ft | 5 kts | 214° |
| 2026-05-07 11:56 | 51.47174 | -0.46867 | 100 ft | 7 kts | 180° |
| 2026-05-07 11:57 | 51.47120 | -0.46867 | 100 ft | 7 kts | 180° |
| 2026-05-07 11:57 | 51.47067 | -0.46867 | 100 ft | 7 kts | 180° |
| 2026-05-07 11:57 | 51.47013 | -0.46866 | 100 ft | 7 kts | 180° |
| 2026-05-07 11:57 | 51.46963 | -0.46866 | 100 ft | 7 kts | 180° |
| 2026-05-07 11:58 | 51.46920 | -0.46866 | 100 ft | 6 kts | 180° |
| 2026-05-07 11:58 | 51.46874 | -0.46866 | 100 ft | 7 kts | 179° |
| 2026-05-07 11:58 | 51.46818 | -0.46864 | 100 ft | 7 kts | 179° |
| 2026-05-07 11:58 | 51.46776 | -0.46866 | 100 ft | 5 kts | 191° |
| 2026-05-07 11:59 | 51.46749 | -0.46914 | 100 ft | 7 kts | 254° |
| 2026-05-07 11:59 | 51.46747 | -0.47000 | 100 ft | 8 kts | 270° |
| 2026-05-07 11:59 | 51.46746 | -0.47098 | 100 ft | 8 kts | 270° |
| 2026-05-07 11:59 | 51.46746 | -0.47197 | 100 ft | 9 kts | 269° |
| 2026-05-07 12:00 | 51.46745 | -0.47301 | 100 ft | 9 kts | 270° |
| 2026-05-07 12:00 | 51.46745 | -0.47413 | 100 ft | 10 kts | 270° |
| 2026-05-07 12:00 | 51.46745 | -0.47520 | 100 ft | 9 kts | 270° |
| 2026-05-07 12:00 | 51.46744 | -0.47628 | 100 ft | 10 kts | 270° |
| 2026-05-07 12:01 | 51.46744 | -0.47741 | 100 ft | 8 kts | 270° |
| 2026-05-07 12:01 | 51.46744 | -0.47820 | 100 ft | 7 kts | 270° |
| 2026-05-07 12:01 | 51.46745 | -0.47908 | 100 ft | 8 kts | 270° |
| 2026-05-07 12:01 | 51.46744 | -0.48010 | 100 ft | 9 kts | 269° |
| 2026-05-07 12:02 | 51.46743 | -0.48123 | 100 ft | 10 kts | 269° |
| 2026-05-07 12:02 | 51.46742 | -0.48245 | 100 ft | 10 kts | 270° |
| 2026-05-07 12:02 | 51.46741 | -0.48357 | 100 ft | 6 kts | 270° |
| 2026-05-07 12:02 | 51.46741 | -0.48433 | 100 ft | 7 kts | 270° |
| 2026-05-07 12:03 | 51.46741 | -0.48518 | 100 ft | 8 kts | 270° |
| 2026-05-07 12:03 | 51.46741 | -0.48600 | 100 ft | 5 kts | 270° |
| 2026-05-07 12:03 | 51.46740 | -0.48659 | 100 ft | 5 kts | 269° |
| 2026-05-07 12:03 | 51.46737 | -0.48714 | 100 ft | 5 kts | 251° |
| 2026-05-07 12:04 | 51.46705 | -0.48746 | 100 ft | 6 kts | 191° |
| 2026-05-07 12:04 | 51.46656 | -0.48750 | 100 ft | 7 kts | 182° |
| 2026-05-07 12:04 | 51.46609 | -0.48762 | 100 ft | 7 kts | 197° |
| 2026-05-07 12:04 | 51.46558 | -0.48788 | 100 ft | 8 kts | 193° |
| 2026-05-07 12:05 | 51.46512 | -0.48779 | 100 ft | 6 kts | 152° |
| 2026-05-07 12:05 | 51.46484 | -0.48735 | 100 ft | 3 kts | 117° |
| 2026-05-07 12:05 | 51.46478 | -0.48683 | 100 ft | 5 kts | 95° |
| 2026-05-07 12:05 | 51.46478 | -0.48668 | 100 ft | 0 kts | 91° |
| 2026-05-07 12:06 | 51.46478 | -0.48564 | 100 ft | 30 kts | 90° |
| 2026-05-07 12:06 | 51.46479 | -0.47871 | 100 ft | 91 kts | 90° |
| 2026-05-07 12:06 | 51.46484 | -0.46548 | 100 ft | 143 kts | 90° |
| 2026-05-07 12:06 | 51.46490 | -0.44718 | 114 ft | 184 kts | 91° |
| 2026-05-07 12:07 | 51.46500 | -0.42578 | 509 ft | 194 kts | 90° |
| 2026-05-07 12:07 | 51.46393 | -0.40447 | 1133 ft | 194 kts | 111° |
| 2026-05-07 12:07 | 51.45602 | -0.38803 | 1821 ft | 190 kts | 148° |
| 2026-05-07 12:07 | 51.44358 | -0.38294 | 2428 ft | 190 kts | 188° |
| 2026-05-07 12:08 | 51.43142 | -0.39149 | 2754 ft | 199 kts | 217° |
| 2026-05-07 12:08 | 51.42044 | -0.40631 | 2996 ft | 212 kts | 221° |
| 2026-05-07 12:08 | 51.40921 | -0.42248 | 3234 ft | 226 kts | 221° |
| 2026-05-07 12:08 | 51.39816 | -0.44112 | 3524 ft | 239 kts | 237° |
| 2026-05-07 12:09 | 51.39241 | -0.46658 | 3796 ft | 253 kts | 266° |
| 2026-05-07 12:09 | 51.39362 | -0.49554 | 4137 ft | 265 kts | 280° |
| 2026-05-07 12:09 | 51.39718 | -0.52441 | 4691 ft | 269 kts | 282° |
| 2026-05-07 12:09 | 51.40091 | -0.55389 | 5337 ft | 269 kts | 282° |
| 2026-05-07 12:10 | 51.40440 | -0.58334 | 5937 ft | 270 kts | 282° |
| 2026-05-07 12:10 | 51.40772 | -0.61256 | 6488 ft | 273 kts | 282° |
| 2026-05-07 12:10 | 51.41201 | -0.64236 | 7070 ft | 274 kts | 290° |
| 2026-05-07 12:10 | 51.41904 | -0.67022 | 7602 ft | 276 kts | 294° |
| 2026-05-07 12:11 | 51.42696 | -0.69883 | 8146 ft | 279 kts | 294° |
| 2026-05-07 12:11 | 51.43464 | -0.72720 | 8678 ft | 282 kts | 293° |
| 2026-05-07 12:11 | 51.44226 | -0.75644 | 9064 ft | 286 kts | 292° |
| 2026-05-07 12:11 | 51.44975 | -0.78591 | 9606 ft | 288 kts | 291° |
| 2026-05-07 12:12 | 51.45726 | -0.81584 | 10180 ft | 290 kts | 291° |
| 2026-05-07 12:12 | 51.46481 | -0.84610 | 10521 ft | 300 kts | 291° |
| 2026-05-07 12:12 | 51.47279 | -0.87796 | 10770 ft | 313 kts | 292° |
| 2026-05-07 12:12 | 51.48134 | -0.91070 | 11013 ft | 326 kts | 292° |
| 2026-05-07 12:13 | 51.49046 | -0.94520 | 11258 ft | 340 kts | 292° |
| 2026-05-07 12:13 | 51.49980 | -0.98060 | 11510 ft | 352 kts | 292° |
| 2026-05-07 12:13 | 51.50935 | -1.01691 | 11967 ft | 357 kts | 292° |
| 2026-05-07 12:13 | 51.51907 | -1.05402 | 12543 ft | 359 kts | 292° |
| 2026-05-07 12:14 | 51.52874 | -1.09111 | 13108 ft | 362 kts | 292° |
| 2026-05-07 12:14 | 51.53839 | -1.12816 | 13645 ft | 364 kts | 292° |
| 2026-05-07 12:14 | 51.54823 | -1.16602 | 14189 ft | 367 kts | 292° |
| 2026-05-07 12:14 | 51.55812 | -1.20399 | 14735 ft | 370 kts | 292° |
| 2026-05-07 12:15 | 51.56813 | -1.24232 | 15274 ft | 372 kts | 292° |
| 2026-05-07 12:15 | 51.57807 | -1.28045 | 15812 ft | 375 kts | 292° |
| 2026-05-07 12:15 | 51.58823 | -1.31948 | 16344 ft | 377 kts | 292° |
| 2026-05-07 12:15 | 51.59828 | -1.35819 | 16870 ft | 379 kts | 292° |
| 2026-05-07 12:16 | 51.60903 | -1.39726 | 17387 ft | 382 kts | 295° |
| 2026-05-07 12:16 | 51.62123 | -1.43536 | 17896 ft | 385 kts | 297° |
| 2026-05-07 12:16 | 51.63380 | -1.47309 | 18407 ft | 388 kts | 297° |
| 2026-05-07 12:16 | 51.64659 | -1.51132 | 18897 ft | 390 kts | 297° |
| 2026-05-07 12:17 | 51.65951 | -1.55002 | 19374 ft | 393 kts | 297° |
| 2026-05-07 12:17 | 51.67247 | -1.58901 | 19832 ft | 396 kts | 297° |
| 2026-05-07 12:17 | 51.68557 | -1.62850 | 20272 ft | 399 kts | 297° |
| 2026-05-07 12:17 | 51.69716 | -1.66854 | 20683 ft | 402 kts | 289° |
| 2026-05-07 12:18 | 51.70542 | -1.71168 | 21112 ft | 403 kts | 281° |
| 2026-05-07 12:18 | 51.71010 | -1.75645 | 21525 ft | 405 kts | 276° |
| 2026-05-07 12:18 | 51.71331 | -1.80151 | 21914 ft | 408 kts | 275° |
| 2026-05-07 12:18 | 51.71636 | -1.84712 | 22305 ft | 411 kts | 275° |
| 2026-05-07 12:19 | 51.71954 | -1.89320 | 22682 ft | 414 kts | 275° |
| 2026-05-07 12:19 | 51.72278 | -1.93910 | 23050 ft | 417 kts | 275° |
| 2026-05-07 12:19 | 51.72612 | -1.98627 | 23419 ft | 419 kts | 275° |
| 2026-05-07 12:19 | 51.72944 | -2.03323 | 23800 ft | 421 kts | 275° |
| 2026-05-07 12:20 | 51.73272 | -2.08011 | 24138 ft | 424 kts | 275° |
| 2026-05-07 12:20 | 51.73600 | -2.12721 | 24468 ft | 427 kts | 275° |
| 2026-05-07 12:20 | 51.73928 | -2.17460 | 24798 ft | 430 kts | 275° |
| 2026-05-07 12:20 | 51.74259 | -2.22278 | 25112 ft | 432 kts | 275° |
| 2026-05-07 12:21 | 51.74595 | -2.27189 | 25434 ft | 435 kts | 275° |
| 2026-05-07 12:21 | 51.74921 | -2.31991 | 25744 ft | 438 kts | 275° |
| 2026-05-07 12:21 | 51.75258 | -2.36962 | 26063 ft | 440 kts | 275° |
| 2026-05-07 12:21 | 51.75583 | -2.41819 | 26361 ft | 442 kts | 275° |
| 2026-05-07 12:22 | 51.75910 | -2.46728 | 26646 ft | 445 kts | 276° |
| 2026-05-07 12:22 | 51.76238 | -2.51713 | 26929 ft | 447 kts | 275° |
| 2026-05-07 12:22 | 51.76565 | -2.56688 | 27210 ft | 449 kts | 275° |
| 2026-05-07 12:22 | 51.76897 | -2.61763 | 27490 ft | 451 kts | 276° |
| 2026-05-07 12:23 | 51.77225 | -2.66777 | 27749 ft | 454 kts | 275° |
| 2026-05-07 12:23 | 51.77554 | -2.71832 | 28003 ft | 456 kts | 275° |
| 2026-05-07 12:23 | 51.77883 | -2.76932 | 28252 ft | 458 kts | 275° |
| 2026-05-07 12:23 | 51.78211 | -2.82076 | 28510 ft | 460 kts | 275° |
| 2026-05-07 12:24 | 51.78537 | -2.87226 | 28751 ft | 462 kts | 275° |
| 2026-05-07 12:24 | 51.78863 | -2.92406 | 29003 ft | 464 kts | 275° |
| 2026-05-07 12:24 | 51.79184 | -2.97561 | 29252 ft | 466 kts | 275° |
| 2026-05-07 12:24 | 51.79507 | -3.02780 | 29493 ft | 468 kts | 275° |
| 2026-05-07 12:25 | 51.79831 | -3.08047 | 29727 ft | 470 kts | 275° |
| 2026-05-07 12:25 | 51.80149 | -3.13272 | 29943 ft | 472 kts | 275° |
| 2026-05-07 12:25 | 51.80468 | -3.18569 | 30159 ft | 474 kts | 275° |
| 2026-05-07 12:25 | 51.80787 | -3.23888 | 30445 ft | 474 kts | 275° |
| 2026-05-07 12:26 | 51.81102 | -3.29166 | 30790 ft | 473 kts | 275° |
| 2026-05-07 12:26 | 51.81412 | -3.34429 | 31107 ft | 472 kts | 275° |
| 2026-05-07 12:26 | 51.81721 | -3.39734 | 31410 ft | 471 kts | 275° |
| 2026-05-07 12:26 | 51.82024 | -3.44945 | 31705 ft | 470 kts | 275° |
| 2026-05-07 12:27 | 51.82337 | -3.50183 | 31985 ft | 469 kts | 276° |
| 2026-05-07 12:27 | 51.82784 | -3.55382 | 32244 ft | 469 kts | 279° |
| 2026-05-07 12:27 | 51.83395 | -3.60549 | 32470 ft | 470 kts | 281° |
| 2026-05-07 12:27 | 51.84062 | -3.65714 | 32668 ft | 471 kts | 281° |
| 2026-05-07 12:28 | 51.84741 | -3.70900 | 32844 ft | 472 kts | 281° |
| 2026-05-07 12:28 | 51.85426 | -3.76140 | 33035 ft | 473 kts | 281° |
| 2026-05-07 12:28 | 51.86092 | -3.81284 | 33253 ft | 473 kts | 281° |
| 2026-05-07 12:28 | 51.86766 | -3.86540 | 33457 ft | 473 kts | 281° |
| 2026-05-07 12:29 | 51.87429 | -3.91729 | 33626 ft | 474 kts | 281° |
| 2026-05-07 12:29 | 51.88094 | -3.96952 | 33788 ft | 475 kts | 281° |
| 2026-05-07 12:29 | 51.88754 | -4.02172 | 33948 ft | 476 kts | 281° |
| 2026-05-07 12:30 | 51.90082 | -4.12717 | 33982 ft | 477 kts | 281° |
| 2026-05-07 12:30 | 51.91384 | -4.23143 | 33982 ft | 477 kts | 281° |
| 2026-05-07 12:31 | 51.92695 | -4.33726 | 33989 ft | 476 kts | 281° |
| 2026-05-07 12:31 | 51.93982 | -4.44206 | 33989 ft | 476 kts | 281° |
| 2026-05-07 12:32 | 51.95262 | -4.54712 | 33988 ft | 476 kts | 281° |